Schaefferstown, PA Weather

Current Weather for Tue May 21st 2024

As of 12:00 PM EDT

81°F 18°c

Feels Like 84°F

Schaefferstown, PA  weather condition is FOG and MIST and 81°F.

Fog And Mist

Schaefferstown, PA weather report

The current weather report for Schaefferstown PA, as of 12:00 PM EDT, has a sky condition of Fog And Mist with the visibility of 5.00 miles. It is 81 degrees fahrenheit, or 18 degrees celsius and feels like 84 degrees fahrenheit. The barometric pressure is 30.01 - measured by inch of mercury units - and is falling since its last observation. The humidity is 57.94 percent with a dew point of 64.4 degrees fahrenheit that is steady since the last report. Wind direction is North at 4 miles per hour, gusting at 2 mph. Sunrise is at 5:43 AM and Sunset is at 8:18 PM. The moon phase is a Waxing Gibbous Moon. The forecast for Afternoon is Turning mostly cloudy with winds from the southeast at 16 mph and gusts up to 25 mph. Turning overcast with winds from the westnorthwest at 26 mph and gusts up to 35 mph. Tomorrow's weather for Evening has an expected forecast of Overcast with winds from the westnorthwest at 26 mph and gusts up to 35 mph. Thank you for listening to the AI weather report from LocalConditions.com!

If you would like for this to be read back to you, then press Read

Barometer: 30.01 inHg. falling

Humidity 57.94%

Wind N. 4mph

Wind Gust 2mph

Heat Index 84°F

Dew Point 64°F steady

Visibility 5.00mi.

Sunrise 5:43 AM

Sunset 8:18 PM

Moon Phase Waxing Gibbous Moon

Forecast for Schaefferstown, PA:
(Forecast based on TAF for )
1200 PM EDT TUE MAY 21 2024
  
AFTERNOON EVENING OVERNIGHT
Mostly Cloudy Overcast Overcast
Mostly
Cloudy
Overcast Overcast
Original Encoded TAF:
Dated: 1200 PM EDT TUE MAY 21 2024
2024/05/21 15:18
TAF 
      AMD KLNS 211514Z 2115/2212 19007KT P6SM SCT250= TAF 
      AMD KOMA 211515Z 2115/2212 12014KT P6SM SCT025 BKN040 
     FM211600 14014G22KT P6SM BKN025 
     FM211700 18018G26KT P6SM BKN025 
      TEMPO 2118/2120 VRB23G33KT 3SM TSRA BKN015CB 
     FM212000 29023G30KT P6SM OVC020 
     FM212200 29025G32KT P6SM OVC030 
     FM220200 30014G22KT P6SM OVC060

Temperatures Today

The following chart reports what the hourly Schaefferstown, PA temperature has been today, from 12:00 AM to 12:00 PM Tue, May 21st 2024. The lowest temperature reading has been 55.4 degrees fahrenheit at 6:30 AM, while the highest temperature is 80.6 degrees fahrenheit at 11:55 AM.

This weather report is valid in zipcode 17088.